createdAt,value
2018-09-12T00:00:26.710Z,16.80
2018-09-12T00:02:56.205Z,16.70
2018-09-12T00:05:23.720Z,16.70
2018-09-12T00:07:51.161Z,16.60
2018-09-12T00:10:18.611Z,16.60
2018-09-12T00:12:46.082Z,16.60
2018-09-12T00:15:13.907Z,16.60
2018-09-12T00:17:41.349Z,16.50
2018-09-12T00:20:08.784Z,16.50
2018-09-12T00:22:36.293Z,16.40
2018-09-12T00:25:03.760Z,16.40
2018-09-12T00:27:31.216Z,16.20
2018-09-12T00:29:58.639Z,16.10
2018-09-12T00:32:26.091Z,16.10
2018-09-12T00:34:53.520Z,16.00
2018-09-12T00:37:21.004Z,16.00
2018-09-12T00:39:48.580Z,15.90
2018-09-12T00:42:16.021Z,15.90
2018-09-12T00:44:43.481Z,15.80
2018-09-12T00:47:10.936Z,15.80
2018-09-12T00:49:38.389Z,15.80
2018-09-12T00:52:05.843Z,15.60
2018-09-12T00:54:33.298Z,15.40
2018-09-12T00:57:00.777Z,15.30
2018-09-12T00:59:28.220Z,15.30
2018-09-12T01:01:55.693Z,15.20
2018-09-12T01:04:23.129Z,15.10
2018-09-12T01:06:50.563Z,15.10
2018-09-12T01:09:18.017Z,15.20
2018-09-12T01:11:45.495Z,15.20
2018-09-12T01:14:12.992Z,15.20
2018-09-12T01:16:40.480Z,15.20
2018-09-12T01:19:07.997Z,15.10
2018-09-12T01:21:35.509Z,15.10
2018-09-12T01:24:02.963Z,15.00
2018-09-12T01:26:30.404Z,15.10
2018-09-12T01:28:57.840Z,15.00
2018-09-12T01:31:25.297Z,15.00
2018-09-12T01:33:52.780Z,15.00
2018-09-12T01:36:20.228Z,15.10
2018-09-12T01:38:47.777Z,15.10
2018-09-12T01:41:15.178Z,15.10
2018-09-12T01:43:42.587Z,15.10
2018-09-12T01:46:10.012Z,15.10
2018-09-12T01:48:37.424Z,15.00
2018-09-12T01:51:04.863Z,15.00
2018-09-12T01:53:32.267Z,15.00
2018-09-12T01:55:59.796Z,15.10
2018-09-12T01:58:27.403Z,15.10
2018-09-12T02:00:54.780Z,15.10
2018-09-12T02:03:22.195Z,15.10
2018-09-12T02:05:49.623Z,15.10
2018-09-12T02:08:17.089Z,15.10
2018-09-12T02:10:44.500Z,15.10
2018-09-12T02:13:12.080Z,15.10
2018-09-12T02:15:39.509Z,15.10
2018-09-12T02:18:06.912Z,15.00
2018-09-12T02:20:34.331Z,15.00
2018-09-12T02:23:01.747Z,15.00
2018-09-12T02:25:29.179Z,14.90
2018-09-12T02:27:56.601Z,14.90
2018-09-12T02:30:24.116Z,14.80
2018-09-12T02:32:51.583Z,14.80
2018-09-12T02:35:18.993Z,14.80
2018-09-12T02:37:46.436Z,14.80
2018-09-12T02:40:13.869Z,14.70
2018-09-12T02:42:41.436Z,14.70
2018-09-12T02:45:08.860Z,14.70
2018-09-12T02:47:39.119Z,14.70
2018-09-12T02:50:07.654Z,14.60
2018-09-12T02:52:35.228Z,14.60
2018-09-12T02:55:02.624Z,14.60
2018-09-12T02:57:30.048Z,14.60
2018-09-12T02:59:57.460Z,14.50
2018-09-12T03:02:24.923Z,14.40
2018-09-12T03:04:52.619Z,14.30
2018-09-12T03:07:20.088Z,14.10
2018-09-12T03:09:47.532Z,14.10
2018-09-12T03:12:15.385Z,14.10
2018-09-12T03:14:42.843Z,14.20
2018-09-12T03:17:10.841Z,14.20
2018-09-12T03:19:38.243Z,14.20
2018-09-12T03:22:05.851Z,14.20
2018-09-12T03:24:33.439Z,14.30
2018-09-12T03:27:00.900Z,14.30
2018-09-12T03:29:28.444Z,14.30
2018-09-12T03:31:55.935Z,14.30
2018-09-12T03:34:23.396Z,14.30
2018-09-12T03:36:50.840Z,14.30
2018-09-12T03:39:18.275Z,14.30
2018-09-12T03:41:45.765Z,14.30
2018-09-12T03:44:13.208Z,14.20
2018-09-12T03:46:41.460Z,14.20
2018-09-12T03:49:09.072Z,14.20
2018-09-12T03:51:36.500Z,14.20
2018-09-12T03:54:03.969Z,14.20
2018-09-12T03:56:31.392Z,14.20
2018-09-12T03:58:58.837Z,14.20
2018-09-12T04:01:26.300Z,14.20
2018-09-12T04:03:53.869Z,14.10
2018-09-12T04:06:21.739Z,14.10
2018-09-12T04:08:49.187Z,14.00
2018-09-12T04:11:17.772Z,14.00
2018-09-12T04:13:45.364Z,14.00
2018-09-12T04:16:12.773Z,14.00
2018-09-12T04:18:40.234Z,14.00
2018-09-12T04:21:07.807Z,14.00
2018-09-12T04:23:35.240Z,13.90
2018-09-12T04:26:02.667Z,13.90
2018-09-12T04:28:30.155Z,13.90
2018-09-12T04:30:57.573Z,13.90
2018-09-12T04:33:25.008Z,13.90
2018-09-12T04:35:52.485Z,13.80
2018-09-12T04:38:19.921Z,13.80
2018-09-12T04:40:47.380Z,13.80
2018-09-12T04:43:14.876Z,13.70
2018-09-12T04:45:42.288Z,13.70
2018-09-12T04:48:09.732Z,13.50
2018-09-12T04:50:37.143Z,13.50
2018-09-12T04:53:04.588Z,13.60
2018-09-12T04:55:32.013Z,13.60
2018-09-12T04:58:00.595Z,13.60
2018-09-12T05:00:27.990Z,13.60
2018-09-12T05:02:55.433Z,13.50
2018-09-12T05:05:22.872Z,13.60
2018-09-12T05:07:50.303Z,13.60
2018-09-12T05:10:17.794Z,13.60
2018-09-12T05:12:45.287Z,13.60
2018-09-12T05:15:12.737Z,13.60
2018-09-12T05:17:40.136Z,13.60
2018-09-12T05:20:07.582Z,13.60
2018-09-12T05:22:35.016Z,13.50
2018-09-12T05:25:02.431Z,13.70
2018-09-12T05:27:29.918Z,13.60
2018-09-12T05:29:57.316Z,13.60
2018-09-12T05:32:24.767Z,13.60
2018-09-12T05:34:52.423Z,13.60
2018-09-12T05:37:19.852Z,13.60
2018-09-12T05:39:47.302Z,13.70
2018-09-12T05:42:14.703Z,13.70
2018-09-12T05:44:42.161Z,13.80
2018-09-12T05:47:09.560Z,13.80
2018-09-12T05:49:37.002Z,13.70
2018-09-12T05:52:04.538Z,13.80
2018-09-12T05:54:31.935Z,13.90
2018-09-12T05:56:59.336Z,13.90
2018-09-12T05:59:26.872Z,14.00
2018-09-12T06:01:54.300Z,14.10
2018-09-12T06:04:21.747Z,14.10
2018-09-12T06:06:49.216Z,14.30
2018-09-12T06:09:16.972Z,14.30
2018-09-12T06:11:44.392Z,14.40
2018-09-12T06:14:11.862Z,14.50
2018-09-12T06:16:39.266Z,14.60
2018-09-12T06:19:06.679Z,14.70
2018-09-12T06:21:34.439Z,14.80
2018-09-12T06:24:01.920Z,14.90
2018-09-12T06:26:29.548Z,15.00
2018-09-12T06:28:57.023Z,15.10
2018-09-12T06:31:24.418Z,15.10
2018-09-12T06:33:51.836Z,15.30
2018-09-12T06:36:19.264Z,15.30
2018-09-12T06:38:46.743Z,15.50
2018-09-12T06:41:14.199Z,15.70
2018-09-12T06:43:41.724Z,15.90
2018-09-12T06:46:09.187Z,16.00
2018-09-12T06:48:36.611Z,16.10
2018-09-12T06:51:04.040Z,16.30
2018-09-12T06:53:31.491Z,16.50
2018-09-12T06:55:58.979Z,16.70
2018-09-12T06:58:26.432Z,16.70
2018-09-12T07:00:54.028Z,16.80
2018-09-12T07:03:21.428Z,16.90
2018-09-12T07:05:48.874Z,17.10
2018-09-12T07:08:16.427Z,17.30
2018-09-12T07:10:43.878Z,17.50
2018-09-12T07:13:11.347Z,17.70
2018-09-12T07:15:38.769Z,17.90
2018-09-12T07:18:06.260Z,18.20
2018-09-12T07:20:33.693Z,18.50
2018-09-12T07:23:01.131Z,19.00
2018-09-12T07:25:28.577Z,19.80
2018-09-12T07:27:56.041Z,20.60
2018-09-12T07:30:23.582Z,21.40
2018-09-12T07:32:51.020Z,22.00
2018-09-12T07:35:18.519Z,22.70
2018-09-12T07:37:45.941Z,23.20
2018-09-12T07:40:13.395Z,23.50
2018-09-12T07:42:40.833Z,24.10
2018-09-12T07:45:08.243Z,24.40
2018-09-12T07:47:35.684Z,24.70
2018-09-12T07:50:03.134Z,25.00
2018-09-12T07:52:30.629Z,25.20
2018-09-12T07:54:58.097Z,25.50
2018-09-12T07:57:25.516Z,25.90
2018-09-12T07:59:53.086Z,26.30
2018-09-12T08:02:20.489Z,26.20
2018-09-12T08:04:47.953Z,26.40
2018-09-12T08:07:15.655Z,26.70
2018-09-12T08:09:43.225Z,27.10
2018-09-12T08:12:11.238Z,27.60
2018-09-12T08:14:38.610Z,27.60
2018-09-12T08:17:06.113Z,27.70
2018-09-12T08:19:33.511Z,28.10
2018-09-12T08:22:00.944Z,28.40
2018-09-12T08:24:28.368Z,28.60
2018-09-12T08:26:55.836Z,28.80
2018-09-12T08:29:23.321Z,29.10
2018-09-12T08:31:51.267Z,29.30
2018-09-12T08:34:18.691Z,29.30
2018-09-12T08:36:46.108Z,29.50
2018-09-12T08:39:13.635Z,29.50
2018-09-12T08:41:41.068Z,29.50
2018-09-12T08:44:08.576Z,29.40
2018-09-12T08:46:36.004Z,29.30
2018-09-12T08:49:03.565Z,29.30
2018-09-12T08:51:31.046Z,29.20
2018-09-12T08:53:58.436Z,29.10
2018-09-12T08:56:25.892Z,29.10
2018-09-12T08:58:53.441Z,29.40
2018-09-12T09:01:20.963Z,29.40
2018-09-12T09:03:48.362Z,29.30
2018-09-12T09:06:15.787Z,29.40
2018-09-12T09:08:43.236Z,29.20
2018-09-12T09:11:10.673Z,29.10
2018-09-12T09:13:38.216Z,29.20
2018-09-12T09:16:05.636Z,29.40
2018-09-12T09:18:33.090Z,29.70
2018-09-12T09:21:00.505Z,29.70
2018-09-12T09:23:27.919Z,29.90
2018-09-12T09:25:55.368Z,30.30
2018-09-12T09:28:22.787Z,30.50
2018-09-12T09:30:50.280Z,30.70
2018-09-12T09:33:17.744Z,30.70
2018-09-12T09:35:45.441Z,30.70
2018-09-12T09:38:12.620Z,30.80
2018-09-12T09:40:40.035Z,30.80
2018-09-12T09:43:07.466Z,31.10
2018-09-12T09:45:34.867Z,31.10
2018-09-12T09:48:02.347Z,31.10
2018-09-12T09:50:29.725Z,31.00
2018-09-12T09:52:57.135Z,31.20
2018-09-12T09:55:24.564Z,31.60
2018-09-12T09:57:51.956Z,31.60
2018-09-12T10:00:24.772Z,31.80
2018-09-12T10:02:57.639Z,31.70
2018-09-12T10:05:29.376Z,31.60
2018-09-12T10:08:02.492Z,31.40
2018-09-12T10:10:30.001Z,31.40
2018-09-12T10:12:57.490Z,31.20
2018-09-12T10:15:24.983Z,31.40
2018-09-12T10:17:53.472Z,31.40
2018-09-12T10:20:20.888Z,31.40
2018-09-12T10:22:48.359Z,31.40
2018-09-12T10:25:16.026Z,31.40
2018-09-12T10:27:43.590Z,31.80
2018-09-12T10:30:11.053Z,31.70
2018-09-12T10:32:38.534Z,31.60
2018-09-12T10:35:05.960Z,31.80
2018-09-12T10:37:33.360Z,31.90
2018-09-12T10:40:00.833Z,32.10
2018-09-12T10:42:28.245Z,32.30
2018-09-12T10:44:55.652Z,32.50
2018-09-12T10:47:23.112Z,32.70
2018-09-12T10:49:50.529Z,32.60
2018-09-12T10:52:17.960Z,32.20
2018-09-12T10:54:45.364Z,32.10
2018-09-12T10:57:12.784Z,32.10
2018-09-12T10:59:40.252Z,32.50
2018-09-12T11:02:07.665Z,32.40
2018-09-12T11:04:35.164Z,32.30
2018-09-12T11:07:03.167Z,32.40
2018-09-12T11:09:30.606Z,32.50
2018-09-12T11:11:58.021Z,32.80
2018-09-12T11:14:25.544Z,32.90
2018-09-12T11:16:53.066Z,33.20
2018-09-12T11:19:20.476Z,33.20
2018-09-12T11:21:47.961Z,33.10
2018-09-12T11:24:15.433Z,33.10
2018-09-12T11:26:42.883Z,33.30
2018-09-12T11:29:10.319Z,33.40
2018-09-12T11:31:37.727Z,33.40
2018-09-12T11:34:05.288Z,33.30
2018-09-12T11:36:32.717Z,33.00
2018-09-12T11:39:00.148Z,33.00
2018-09-12T11:41:27.564Z,32.90
2018-09-12T11:43:54.987Z,33.00
2018-09-12T11:46:23.751Z,33.10
2018-09-12T11:48:51.161Z,32.70
2018-09-12T11:51:18.581Z,32.60
2018-09-12T11:53:46.020Z,32.60
2018-09-12T11:56:13.505Z,32.50
2018-09-12T11:58:40.932Z,32.50
2018-09-12T12:01:08.553Z,32.30
2018-09-12T12:03:35.997Z,32.40
2018-09-12T12:06:03.427Z,32.00
2018-09-12T12:08:30.930Z,31.80
2018-09-12T12:10:58.355Z,31.90
2018-09-12T12:13:25.876Z,31.70
2018-09-12T12:15:53.296Z,31.60
2018-09-12T12:18:20.804Z,31.60
2018-09-12T12:20:48.235Z,31.40
2018-09-12T12:23:15.787Z,31.20
2018-09-12T12:25:43.390Z,31.10
2018-09-12T12:28:10.939Z,31.00
2018-09-12T12:30:38.434Z,31.10
2018-09-12T12:33:05.875Z,31.10
2018-09-12T12:35:33.362Z,31.10
2018-09-12T12:38:00.696Z,31.10
2018-09-12T12:40:28.165Z,31.00
2018-09-12T12:42:55.697Z,31.10
2018-09-12T12:45:23.206Z,31.10
2018-09-12T12:47:50.699Z,31.00
2018-09-12T12:50:18.212Z,31.00
2018-09-12T12:52:45.767Z,31.00
2018-09-12T12:55:13.227Z,30.90
2018-09-12T12:57:40.685Z,30.90
2018-09-12T13:00:08.289Z,30.80
2018-09-12T13:02:35.716Z,30.80
2018-09-12T13:05:03.313Z,30.70
2018-09-12T13:07:30.736Z,30.70
2018-09-12T13:09:58.164Z,30.70
2018-09-12T13:12:25.608Z,30.90
2018-09-12T13:14:53.060Z,31.00
2018-09-12T13:17:20.540Z,31.00
2018-09-12T13:19:47.952Z,30.90
2018-09-12T13:22:15.525Z,31.00
2018-09-12T13:24:43.002Z,30.90
2018-09-12T13:27:10.540Z,30.90
2018-09-12T13:29:37.933Z,30.80
2018-09-12T13:32:05.453Z,30.70
2018-09-12T13:34:33.046Z,30.80
2018-09-12T13:37:00.532Z,30.90
2018-09-12T13:39:28.000Z,30.90
2018-09-12T13:41:56.505Z,30.80
2018-09-12T13:44:23.969Z,30.80
2018-09-12T13:46:51.328Z,30.90
2018-09-12T13:49:18.827Z,30.70
2018-09-12T13:51:46.358Z,30.80
2018-09-12T13:54:13.772Z,30.80
2018-09-12T13:56:41.362Z,30.90
2018-09-12T13:59:08.683Z,30.70
2018-09-12T14:01:36.096Z,30.70
2018-09-12T14:04:03.692Z,30.80
2018-09-12T14:06:31.102Z,30.90
2018-09-12T14:08:58.542Z,30.80
2018-09-12T14:11:25.927Z,30.80
2018-09-12T14:13:53.403Z,30.70
2018-09-12T14:16:20.854Z,30.60
2018-09-12T14:18:48.259Z,30.50
2018-09-12T14:21:15.840Z,30.60
2018-09-12T14:23:43.419Z,30.50
2018-09-12T14:26:11.340Z,30.50
2018-09-12T14:28:38.771Z,30.40
2018-09-12T14:31:06.215Z,30.30
2018-09-12T14:33:33.756Z,30.40
2018-09-12T14:36:01.231Z,30.50
2018-09-12T14:38:28.639Z,30.50
2018-09-12T14:40:56.059Z,30.50
2018-09-12T14:43:23.547Z,30.40
2018-09-12T14:45:50.995Z,30.40
2018-09-12T14:48:18.431Z,30.40
2018-09-12T14:50:47.988Z,30.30
2018-09-12T14:53:15.366Z,30.30
2018-09-12T14:55:42.769Z,30.20
2018-09-12T14:58:10.194Z,30.20
2018-09-12T15:00:37.781Z,30.10
2018-09-12T15:03:07.290Z,30.10
2018-09-12T15:05:34.727Z,30.10
2018-09-12T15:08:02.142Z,30.10
2018-09-12T15:10:29.616Z,29.90
2018-09-12T15:12:56.967Z,29.80
2018-09-12T15:15:24.373Z,29.80
2018-09-12T15:17:51.793Z,29.80
2018-09-12T15:20:19.217Z,29.90
2018-09-12T15:22:46.699Z,29.80
2018-09-12T15:25:15.056Z,29.70
2018-09-12T15:27:42.483Z,29.60
2018-09-12T15:30:10.435Z,29.60
2018-09-12T15:32:37.940Z,29.60
2018-09-12T15:35:05.348Z,29.50
2018-09-12T15:37:32.784Z,29.50
2018-09-12T15:40:00.251Z,29.30
2018-09-12T15:42:27.991Z,29.30
2018-09-12T15:44:57.528Z,29.30
2018-09-12T15:47:25.021Z,29.40
2018-09-12T15:49:58.752Z,29.40
2018-09-12T15:52:26.170Z,29.20
2018-09-12T15:54:53.673Z,29.20
2018-09-12T15:57:21.145Z,29.10
2018-09-12T15:59:48.927Z,29.10
2018-09-12T16:02:16.464Z,29.10
2018-09-12T16:04:43.893Z,29.00
2018-09-12T16:07:11.336Z,29.00
2018-09-12T16:09:38.794Z,28.90
2018-09-12T16:12:06.199Z,28.80
2018-09-12T16:14:33.624Z,28.90
2018-09-12T16:17:01.141Z,28.80
2018-09-12T16:19:28.659Z,28.70
2018-09-12T16:21:56.080Z,28.70
2018-09-12T16:24:23.641Z,28.50
2018-09-12T16:26:51.068Z,28.40
2018-09-12T16:29:18.472Z,28.50
2018-09-12T16:31:47.006Z,28.50
2018-09-12T16:34:14.431Z,28.50
2018-09-12T16:36:41.876Z,28.50
2018-09-12T16:39:10.274Z,28.40
2018-09-12T16:41:37.903Z,28.30
2018-09-12T16:44:05.344Z,28.40
2018-09-12T16:46:32.809Z,28.30
2018-09-12T16:49:00.218Z,28.20
2018-09-12T16:51:27.790Z,28.20
2018-09-12T16:53:55.185Z,28.30
2018-09-12T16:56:22.679Z,28.10
2018-09-12T16:58:54.156Z,28.00
2018-09-12T17:01:21.551Z,28.00
2018-09-12T17:03:49.765Z,27.90
2018-09-12T17:06:17.279Z,27.90
2018-09-12T17:08:44.779Z,27.90
2018-09-12T17:11:12.344Z,27.90
2018-09-12T17:13:39.792Z,27.80
2018-09-12T17:16:07.223Z,27.80
2018-09-12T17:18:34.723Z,27.80
2018-09-12T17:21:03.309Z,27.70
2018-09-12T17:23:30.747Z,27.70
2018-09-12T17:25:58.155Z,27.60
2018-09-12T17:28:25.659Z,27.60
2018-09-12T17:30:53.192Z,27.60
2018-09-12T17:33:20.780Z,27.50
2018-09-12T17:35:48.283Z,27.40
2018-09-12T17:38:15.709Z,27.40
2018-09-12T17:40:43.379Z,27.30
2018-09-12T17:43:11.888Z,27.30
2018-09-12T17:45:39.450Z,27.20
2018-09-12T17:48:06.880Z,27.00
2018-09-12T17:50:36.420Z,26.90
2018-09-12T17:53:04.923Z,26.90
2018-09-12T17:55:32.392Z,26.80
2018-09-12T17:57:59.795Z,26.70
2018-09-12T18:00:27.340Z,26.60
2018-09-12T18:02:54.731Z,26.50
2018-09-12T18:05:22.185Z,26.40
2018-09-12T18:07:49.587Z,26.40
2018-09-12T18:10:17.011Z,26.30
2018-09-12T18:12:44.446Z,26.20
2018-09-12T18:15:11.870Z,26.00
2018-09-12T18:17:39.386Z,26.00
2018-09-12T18:20:11.515Z,25.80
2018-09-12T18:22:38.952Z,25.80
2018-09-12T18:25:06.447Z,25.70
2018-09-12T18:27:34.961Z,25.40
2018-09-12T18:30:02.423Z,25.40
2018-09-12T18:32:29.827Z,25.20
2018-09-12T18:34:57.236Z,25.10
2018-09-12T18:37:25.667Z,25.10
2018-09-12T18:39:54.179Z,25.00
2018-09-12T18:42:21.762Z,24.90
2018-09-12T18:44:49.178Z,24.90
2018-09-12T18:47:17.663Z,24.60
2018-09-12T18:49:45.091Z,24.40
2018-09-12T18:52:12.576Z,24.30
2018-09-12T18:54:40.002Z,24.10
2018-09-12T18:57:08.271Z,23.90
2018-09-12T18:59:35.693Z,23.90
2018-09-12T19:02:03.182Z,24.10
2018-09-12T19:04:30.591Z,24.00
2018-09-12T19:06:58.094Z,24.00
2018-09-12T19:09:25.450Z,23.90
2018-09-12T19:11:52.895Z,23.80
2018-09-12T19:14:20.375Z,23.80
2018-09-12T19:16:47.910Z,23.70
2018-09-12T19:19:15.328Z,23.70
2018-09-12T19:21:42.791Z,23.60
2018-09-12T19:24:10.240Z,23.60
2018-09-12T19:26:37.750Z,23.50
2018-09-12T19:29:05.131Z,23.50
2018-09-12T19:31:32.591Z,23.50
2018-09-12T19:34:00.081Z,23.50
2018-09-12T19:36:27.518Z,23.60
2018-09-12T19:38:54.995Z,23.50
2018-09-12T19:41:22.450Z,23.40
2018-09-12T19:43:49.883Z,23.40
2018-09-12T19:46:17.362Z,23.50
2018-09-12T19:48:44.828Z,23.50
2018-09-12T19:51:17.106Z,23.50
2018-09-12T19:53:44.927Z,23.50
2018-09-12T19:56:13.424Z,23.50
2018-09-12T19:58:41.076Z,23.50
2018-09-12T20:01:08.807Z,23.50
2018-09-12T20:03:36.228Z,23.50
2018-09-12T20:06:04.248Z,23.50
2018-09-12T20:08:31.772Z,23.50
2018-09-12T20:10:59.230Z,23.40
2018-09-12T20:13:26.783Z,23.50
2018-09-12T20:15:54.396Z,23.50
2018-09-12T20:18:21.796Z,23.40
2018-09-12T20:20:49.629Z,23.40
2018-09-12T20:23:17.122Z,23.40
2018-09-12T20:25:44.530Z,23.40
2018-09-12T20:28:13.066Z,23.20
2018-09-12T20:30:40.472Z,23.20
2018-09-12T20:33:07.908Z,23.10
2018-09-12T20:35:35.575Z,23.10
2018-09-12T20:38:03.088Z,23.00
2018-09-12T20:40:30.576Z,22.80
2018-09-12T20:42:57.992Z,22.80
2018-09-12T20:45:25.412Z,22.90
2018-09-12T20:47:52.879Z,22.70
2018-09-12T20:50:20.375Z,22.80
2018-09-12T20:52:47.915Z,22.70
2018-09-12T20:55:15.319Z,22.60
2018-09-12T20:57:42.803Z,22.60
2018-09-12T21:00:10.207Z,22.60
2018-09-12T21:02:37.675Z,22.60
2018-09-12T21:05:05.124Z,22.60
2018-09-12T21:07:32.555Z,22.50
2018-09-12T21:10:00.108Z,22.40
2018-09-12T21:12:27.515Z,22.40
2018-09-12T21:14:54.953Z,22.40
2018-09-12T21:17:22.398Z,22.40
2018-09-12T21:19:49.814Z,22.40
2018-09-12T21:22:17.231Z,22.30
2018-09-12T21:24:44.663Z,22.40
2018-09-12T21:27:12.179Z,22.30
2018-09-12T21:29:39.620Z,22.40
2018-09-12T21:32:07.047Z,22.40
2018-09-12T21:34:34.491Z,22.30
2018-09-12T21:37:02.019Z,22.40
2018-09-12T21:39:29.416Z,22.40
2018-09-12T21:41:56.823Z,22.40
2018-09-12T21:44:24.316Z,22.40
2018-09-12T21:46:51.872Z,22.30
2018-09-12T21:49:19.328Z,22.30
2018-09-12T21:51:46.743Z,22.20
2018-09-12T21:54:14.179Z,22.10
2018-09-12T21:56:41.592Z,22.10
2018-09-12T21:59:09.043Z,22.10
2018-09-12T22:01:36.519Z,22.00
2018-09-12T22:04:03.948Z,21.90
2018-09-12T22:06:31.352Z,21.90
2018-09-12T22:08:58.847Z,21.80
2018-09-12T22:11:26.308Z,21.70
2018-09-12T22:13:53.816Z,21.60
2018-09-12T22:16:21.192Z,21.40
2018-09-12T22:18:48.627Z,21.30
2018-09-12T22:21:16.130Z,21.10
2018-09-12T22:23:43.555Z,21.10
2018-09-12T22:26:11.048Z,21.10
2018-09-12T22:28:38.544Z,20.90
2018-09-12T22:31:06.076Z,20.90
2018-09-12T22:33:33.605Z,20.90
2018-09-12T22:36:01.071Z,20.80
2018-09-12T22:38:28.600Z,20.70
2018-09-12T22:40:56.034Z,20.60
2018-09-12T22:43:23.556Z,20.60
2018-09-12T22:45:50.976Z,20.60
2018-09-12T22:48:18.391Z,20.60
2018-09-12T22:50:45.819Z,20.50
2018-09-12T22:53:13.268Z,20.40
2018-09-12T22:55:40.835Z,20.40
2018-09-12T22:58:08.356Z,20.30
2018-09-12T23:00:35.843Z,20.30
2018-09-12T23:03:03.345Z,20.40
2018-09-12T23:05:30.755Z,20.30
2018-09-12T23:07:58.189Z,20.20
2018-09-12T23:10:25.604Z,20.20
2018-09-12T23:12:53.195Z,20.10
2018-09-12T23:15:20.595Z,19.90
2018-09-12T23:17:48.044Z,19.90
2018-09-12T23:20:15.459Z,19.70
2018-09-12T23:22:42.907Z,19.60
2018-09-12T23:25:10.340Z,19.60
2018-09-12T23:27:37.888Z,19.60
2018-09-12T23:30:05.426Z,19.50
2018-09-12T23:32:32.867Z,19.50
2018-09-12T23:35:00.306Z,19.40
2018-09-12T23:37:27.785Z,19.40
2018-09-12T23:39:56.274Z,19.50
2018-09-12T23:42:23.692Z,19.50
2018-09-12T23:44:51.109Z,19.50
2018-09-12T23:47:18.651Z,19.60
2018-09-12T23:49:46.103Z,19.50
2018-09-12T23:52:13.653Z,19.40
2018-09-12T23:54:41.080Z,19.40
2018-09-12T23:57:08.497Z,19.40
2018-09-12T23:59:35.956Z,19.50
